Perpiñán, Francia

5:04 PM CEST en Agosto 27, 2016 (GMT +0200)
Rivesaltes | | Change Station

Alt 154 ft 42.74 °N, 2.87 °E | Updated 34 minutes ago

Partly Cloudy
Parcialmente nublado
81 ° F
Sensación térmica 83 ° F
N
13
Viento Variable Viento desde Este

Hoy
Alta -- | Baja -- ° F
--% Posibilidad de precipitaciones
Ayer
Alta -- | Baja -- ° F
Precip. -- pul
Presión 30.06 pul
Visibilidad 6.2 Millas
Nubes Baja 1700 ft
Índice de calor 83 ° F
Punto de rocío 68 ° F
Humedad 65%
Precipitaciones 0.00 pul
Espesor de la nieve No disponible.
7:08 AM 8:30 PM
Creciente menguante, 24% visible
METAR LFMP 271430Z AUTO 09011KT 060V120 9999 FEW017 27/20 Q1018 BECMG 36005KT BKN006
Presión 30.06 pul
Visibilidad 6.2 Millas
Nubes Baja 1700 ft
Índice de calor 83 ° F
Punto de rocío 68 ° F
Humedad 65%
Precipitaciones 0.00 pul
Espesor de la nieve No disponible.
7:08 AM 8:30 PM
Creciente menguante, 24% visible
METAR LFMP 271430Z AUTO 09011KT 060V120 9999 FEW017 27/20 Q1018 BECMG 36005KT BKN006

10-Day Weather Forecast

×

Almanac

Astronomía

Aug. 27, 2016 Salida Puesta
Hora real
Crepúsculo civil
Crepúsculo náutico
Crepúsculo astronómico
Luna
Horas de luz
Horas de luz
Tomorrow will be .
, % of the Moon is Illuminated

Extremos de hoy

Máximos del país Bajas del país

Community

WunderPhotos

Upload Photos

1,935,354 ¡fotos cargadas!

WunderBlog® & News

Nearby

Calidad del aire

  Calidad del aire Índice AQ Contaminante
Not available.

Grosos de nieve

Estación Profundido Altura

Actividad de terremotos

Ciudad Distance Mag. Tiempo y dato
Magnitud mínima muestra es 2,5.

Temperaturas de aguas costeras

Lugar Temperatura

Stations

Estaciones meteorológicas cercanas

Ubicación de la estación Temp. Vientos helados Punto de rocío Humedad Viento Precip. Alt Actualizado Tipo